EIKY/KIR METAR and TAF weather

Enter ICAO airport designator
Station Type Date Time Source
EIKY METAR 2022/08/16 17:30 UTC NOAA

EIKY 161730Z 34009KT 300V020 9999 SCT036 16/09 Q1016


Station Type Date Time Source
EIKY Decoded METAR 2022/08/16 17:30 UTC NOAA

Station name not available
Aug 16, 2022 - 01:30 PM EDT / 2022.08.16 1730 UTC
Wind: from the NNW (340 degrees) at 10 MPH (9 KT) (direction variable):0
Visibility: greater than 7 mile(s):0
Sky conditions: partly cloudy
Temperature: 60 F (16 C)
Dew Point: 48 F (9 C)
Relative Humidity: 63%
Pressure (altimeter): 30.00 in. Hg (1016 hPa)
ob: EIKY 161730Z 34009KT 300V020 9999 SCT036 16/09 Q1016
cycle: 17

Station Type Date Time Source
EIKY TAF UTC NOAA

Error!

Example: see airport list